Time;durP1;ratioP1;P1;durP2;ratioP2;P2;SDS_P1;SDS_P2;PMS_P1;PMS_P2;Temp;Humidity;BMP_temperature;BMP_pressure;BME280_temperature;BME280_humidity;BME280_pressure;Samples;Min_cycle;Max_cycle;Signal;HPM_P1;HPM_P2
2023/07/17 00:00:53;;;;;;;5.78;1.80;;;18.80;99.90;;;;;;4918123;29;20048;-91
2023/07/17 00:03:37;;;;;;;12.73;3.30;;;18.80;99.90;;;;;;4903124;29;20047;-91
2023/07/17 00:06:06;;;;;;;5.47;2.03;;;18.80;99.90;;;;;;4920093;29;20579;-91
2023/07/17 00:08:31;;;;;;;4.93;1.40;;;18.80;99.90;;;;;;4920505;29;20392;-91
2023/07/17 00:11:06;;;;;;;8.55;1.63;;;18.80;99.90;;;;;;4920333;29;20111;-90
2023/07/17 00:13:32;;;;;;;10.63;2.90;;;18.70;99.90;;;;;;4920098;29;20028;-90
2023/07/17 00:16:15;;;;;;;5.85;1.60;;;18.70;99.90;;;;;;4920975;29;20469;-91
2023/07/17 00:18:41;;;;;;;3.88;1.70;;;18.60;99.90;;;;;;4919353;29;20092;-92
2023/07/17 00:21:07;;;;;;;7.47;1.83;;;18.90;99.90;;;;;;4920176;29;20036;-91
2023/07/17 00:23:32;;;;;;;5.22;1.67;;;18.60;99.90;;;;;;4920424;29;20064;-93
2023/07/17 00:26:01;;;;;;;3.60;1.70;;;18.50;99.90;;;;;;4919961;29;20477;-90
2023/07/17 00:28:28;;;;;;;5.32;1.55;;;18.50;99.90;;;;;;4919805;29;20076;-93
2023/07/17 00:30:54;;;;;;;3.83;1.42;;;18.50;99.90;;;;;;4984373;23;21293;-91
2023/07/17 00:33:31;;;;;;;8.88;2.35;;;18.50;99.90;;;;;;5007169;23;20478;-91
2023/07/17 00:36:06;;;;;;;6.40;1.70;;;18.90;99.90;;;;;;4997407;28;20031;-91
2023/07/17 00:38:57;;;;;;;9.88;1.98;;;18.40;99.90;;;;;;5004014;23;20030;-91
2023/07/17 00:41:43;;;;;;;4.70;1.85;;;18.40;99.90;;;;;;4977064;28;20058;-91
2023/07/17 00:47:05;;;;;;;5.35;1.55;;;18.40;99.90;;;;;;5008193;23;20058;-91
2023/07/17 00:49:48;;;;;;;6.22;2.28;;;18.40;99.90;;;;;;4997541;28;20034;-91
2023/07/17 00:52:14;;;;;;;8.90;1.60;;;18.40;99.90;;;;;;4997146;28;20018;-91
2023/07/17 00:54:59;;;;;;;3.97;1.50;;;18.90;99.90;;;;;;4995960;28;20022;-93
2023/07/17 00:57:40;;;;;;;8.85;1.98;;;18.70;99.90;;;;;;5003309;23;20086;-91
2023/07/17 01:00:15;;;;;;;6.20;1.65;;;18.80;99.90;;;;;;4996789;28;20026;-91
2023/07/17 01:02:41;;;;;;;6.88;1.98;;;18.30;99.90;;;;;;4995850;28;20042;-91
2023/07/17 01:05:16;;;;;;;5.13;2.00;;;19.70;99.90;;;;;;4996310;28;20494;-91
2023/07/17 01:07:54;;;;;;;5.03;1.83;;;18.20;99.90;;;;;;4995323;28;20386;-91
2023/07/17 01:10:40;;;;;;;5.82;2.20;;;18.60;99.90;;;;;;4995955;28;20046;-91
2023/07/17 01:13:05;;;;;;;5.38;1.98;;;18.70;99.90;;;;;;4996478;28;20126;-91
2023/07/17 01:15:36;;;;;;;6.65;1.85;;;18.20;99.90;;;;;;4997803;28;20563;-91
2023/07/17 01:18:20;;;;;;;4.00;1.65;;;19.00;99.90;;;;;;4998610;28;20022;-91
2023/07/17 01:21:05;;;;;;;7.90;2.00;;;17.80;99.90;;;;;;4997513;28;20026;-91
2023/07/17 01:23:46;;;;;;;8.13;2.53;;;18.20;99.90;;;;;;5005670;23;20542;-91
2023/07/17 01:26:15;;;;;;;;;;;19.00;99.90;;;;;;4998677;28;20117;-91
2023/07/17 01:28:51;;;;;;;;;;;;;;;;;;;;;
2023/07/17 01:31:27;;;;;;;9.43;2.95;;;18.20;99.90;;;;;;4994069;28;20065;-91
2023/07/17 01:33:56;;;;;;;9.35;3.00;;;19.60;99.90;;;;;;4995722;28;20073;-90
2023/07/17 01:39:24;;;;;;;6.47;2.10;;;18.20;99.90;;;;;;5006811;23;20061;-91
2023/07/17 01:42:08;;;;;;;8.18;2.97;;;18.20;99.90;;;;;;4995293;28;20371;-91
2023/07/17 01:47:11;;;;;;;6.00;2.33;;;18.10;99.90;;;;;;5006939;23;20089;-91
2023/07/17 01:49:36;;;;;;;9.00;1.98;;;18.10;99.90;;;;;;4994231;28;20118;-91
2023/07/17 01:52:10;;;;;;;5.50;1.88;;;18.10;99.90;;;;;;5001923;23;20325;-90
2023/07/17 01:57:12;;;;;;;12.23;2.72;;;18.00;99.90;;;;;;5013547;23;20058;-91
2023/07/17 02:02:44;;;;;;;5.45;2.15;;;18.10;99.90;;;;;;4999901;23;20123;-92
2023/07/17 02:05:23;;;;;;;5.80;2.33;;;18.00;99.90;;;;;;4976879;28;20034;-92
2023/07/17 02:07:54;;;;;;;9.38;2.35;;;18.00;99.90;;;;;;4994345;28;20638;-91
2023/07/17 02:10:23;;;;;;;4.88;2.20;;;18.70;99.90;;;;;;4995031;28;20026;-90
2023/07/17 02:12:48;;;;;;;9.32;2.50;;;17.90;99.90;;;;;;5002473;23;20117;-92
2023/07/17 02:15:14;;;;;;;7.35;2.47;;;17.80;99.90;;;;;;4994436;28;20070;-91
2023/07/17 02:18:03;;;;;;;5.72;2.33;;;17.80;99.90;;;;;;4994375;28;20037;-91
2023/07/17 02:20:38;;;;;;;7.20;2.42;;;17.80;99.90;;;;;;4994767;28;20027;-91
2023/07/17 02:23:17;;;;;;;13.23;3.45;;;18.50;99.90;;;;;;5001295;23;20049;-91
2023/07/17 02:25:54;;;;;;;7.32;2.40;;;18.00;99.90;;;;;;4974886;28;20039;-92
2023/07/17 02:28:26;;;;;;;8.52;2.90;;;18.10;99.90;;;;;;4975588;28;20355;-91
2023/07/17 02:30:57;;;;;;;5.40;2.60;;;17.60;99.90;;;;;;4975098;28;20019;-91
2023/07/17 02:33:34;;;;;;;6.45;3.55;;;17.70;99.90;;;;;;4975335;28;20030;-92
2023/07/17 02:36:03;;;;;;;6.60;2.78;;;17.60;99.90;;;;;;4975453;28;20102;-92
2023/07/17 02:38:29;;;;;;;13.73;3.80;;;17.50;99.90;;;;;;4977478;28;20026;-92
2023/07/17 02:41:10;;;;;;;10.13;3.13;;;17.50;99.90;;;;;;4976906;28;20363;-91
2023/07/17 02:43:35;;;;;;;8.95;3.50;;;17.40;99.90;;;;;;4987099;23;20062;-91
2023/07/17 02:46:18;;;;;;;10.02;3.30;;;17.70;99.90;;;;;;4993627;28;20521;-92
2023/07/17 02:51:18;;;;;;;9.00;3.65;;;17.50;99.90;;;;;;5021491;23;20073;-91
2023/07/17 02:54:02;;;;;;;9.20;3.22;;;18.50;99.90;;;;;;5000693;23;20521;-91
2023/07/17 02:56:43;;;;;;;6.85;2.70;;;18.20;99.90;;;;;;4994212;28;20019;-92
2023/07/17 02:59:26;;;;;;;10.05;3.22;;;17.40;99.90;;;;;;5000947;23;20077;-92
2023/07/17 03:01:51;;;;;;;8.38;3.35;;;18.10;99.90;;;;;;4974568;28;20035;-91
2023/07/17 03:04:26;;;;;;;10.80;3.83;;;18.20;99.90;;;;;;4975276;28;20034;-91
2023/07/17 03:06:52;;;;;;;9.35;3.33;;;16.20;99.90;;;;;;4974711;28;20030;-91
2023/07/17 03:09:29;;;;;;;11.05;3.72;;;18.10;99.90;;;;;;4998350;23;20418;-91
2023/07/17 03:12:00;;;;;;;8.40;3.35;;;18.10;99.90;;;;;;5001174;23;20506;-91
2023/07/17 03:14:32;;;;;;;11.35;3.95;;;17.50;99.90;;;;;;5000678;23;20050;-91
2023/07/17 03:19:23;;;;;;;12.43;3.78;;;17.20;99.90;;;;;;5012411;23;20050;-91
2023/07/17 03:21:51;;;;;;;8.07;4.22;;;17.20;99.90;;;;;;5017811;28;20516;-94
2023/07/17 03:24:17;;;;;;;8.57;4.28;;;17.20;99.90;;;;;;5018118;28;20113;-93
2023/07/17 03:26:50;;;;;;;10.30;3.58;;;18.20;99.90;;;;;;5017961;28;20050;-92
2023/07/17 03:29:15;;;;;;;10.13;4.03;;;17.20;99.90;;;;;;5017517;28;20406;-93
2023/07/17 03:31:50;;;;;;;13.50;4.75;;;17.20;99.90;;;;;;5019047;28;20034;-93
2023/07/17 03:34:24;;;;;;;9.32;3.97;;;17.70;99.90;;;;;;5023480;28;20030;-94
2023/07/17 03:36:53;;;;;;;14.23;4.70;;;17.10;99.90;;;;;;5018328;28;20026;-93
2023/07/17 03:39:30;;;;;;;10.88;4.63;;;17.30;99.90;;;;;;5018450;28;20109;-93
2023/07/17 03:44:33;;;;;;;8.80;4.38;;;17.00;99.90;;;;;;5257582;23;20051;-91
2023/07/17 03:49:50;;;;;;;13.57;4.80;;;17.10;99.90;;;;;;5074700;23;20054;-91
2023/07/17 03:52:15;;;;;;;11.05;5.03;;;17.10;99.90;;;;;;5013401;28;20082;-91
2023/07/17 03:54:59;;;;;;;9.75;4.30;;;17.10;99.90;;;;;;5012457;28;20023;-92
2023/07/17 03:58:07;;;;;;;;;;;;;;;;;;;;;
2023/07/17 04:00:33;;;;;;;13.07;5.18;;;17.10;99.90;;;;;;4869013;29;20061;-90
2023/07/17 04:02:59;;;;;;;12.27;4.70;;;17.10;99.90;;;;;;4913249;29;20060;-90
2023/07/17 04:05:50;;;;;;;11.65;4.70;;;17.80;99.90;;;;;;4964041;23;20137;-89
2023/07/17 04:10:49;;;;;;;19.75;5.28;;;17.00;99.90;;;;;;4998908;23;20071;-91
2023/07/17 04:13:29;;;;;;;13.07;5.60;;;16.90;99.90;;;;;;4979962;28;20039;-91
2023/07/17 04:16:05;;;;;;;9.50;4.72;;;16.70;99.90;;;;;;4974488;28;20129;-91
2023/07/17 04:18:52;;;;;;;11.30;5.47;;;16.80;99.90;;;;;;4997709;23;20050;-91
2023/07/17 04:21:19;;;;;;;12.85;5.47;;;16.90;99.90;;;;;;4995699;28;20035;-90
2023/07/17 04:23:50;;;;;;;16.63;5.63;;;17.30;99.90;;;;;;5191161;23;20066;-90
2023/07/17 04:26:23;;;;;;;12.60;6.00;;;16.90;99.90;;;;;;4998005;28;20026;-92
2023/07/17 04:28:57;;;;;;;13.15;6.35;;;16.90;99.90;;;;;;4998420;28;20050;-89
2023/07/17 04:31:25;;;;;;;14.38;6.70;;;17.10;99.90;;;;;;4995943;28;20029;-90
2023/07/17 04:34:03;;;;;;;15.15;5.93;;;16.80;99.90;;;;;;5018151;23;20066;-90
2023/07/17 04:36:37;;;;;;;24.60;7.15;;;17.80;99.90;;;;;;4996586;28;20022;-90
2023/07/17 04:39:28;;;;;;;15.43;5.93;;;16.80;99.90;;;;;;4995969;28;20026;-91
2023/07/17 05:00:47;;;;;;;17.15;7.95;;;17.00;99.90;;;;;;4787356;29;20027;-90
2023/07/17 05:09:50;;;;;;;;;;;;;;;;;;;;;
2023/07/17 05:12:35;;;;;;;;;;;;;;;;;;;;;
2023/07/17 05:15:01;;;;;;;12.85;6.72;;;17.00;99.90;;;;;;4947600;23;20047;-92
2023/07/17 05:17:36;;;;;;;20.88;8.55;;;17.00;99.90;;;;;;4994764;23;20149;-91
2023/07/17 05:20:05;;;;;;;18.83;8.32;;;16.90;99.90;;;;;;4976261;28;20035;-93
2023/07/17 05:22:31;;;;;;;23.27;8.23;;;17.00;99.90;;;;;;4985751;23;20059;-90
2023/07/17 05:24:57;;;;;;;12.77;7.88;;;17.90;99.90;;;;;;4983188;28;20027;-91
2023/07/17 05:34:30;;;;;;;24.85;9.73;;;16.80;99.90;;;;;;4973601;23;20051;-93
2023/07/17 05:36:56;;;;;;;20.77;10.00;;;17.00;99.90;;;;;;4956048;29;20030;-93
2023/07/17 05:39:28;;;;;;;20.35;9.55;;;17.60;99.90;;;;;;4955961;29;20035;-93
2023/07/17 05:42:09;;;;;;;15.57;8.88;;;17.00;99.90;;;;;;4962119;23;20070;-93
2023/07/17 05:44:45;;;;;;;22.83;9.90;;;17.10;99.90;;;;;;4995641;23;20069;-92
2023/07/17 05:47:32;;;;;;;25.05;10.88;;;17.10;99.90;;;;;;4993383;28;20121;-92
2023/07/17 05:49:58;;;;;;;22.40;10.05;;;16.80;99.90;;;;;;4994171;28;20113;-93
2023/07/17 05:52:24;;;;;;;22.42;9.60;;;17.60;99.90;;;;;;4994392;23;20567;-92
2023/07/17 05:57:56;;;;;;;16.45;9.05;;;17.10;99.90;;;;;;5089415;23;20062;-91
2023/07/17 06:03:48;;;;;;;20.20;9.18;;;16.50;99.90;;;;;;4892088;29;20444;-92
2023/07/17 06:06:28;;;;;;;25.92;8.65;;;17.20;99.90;;;;;;4959269;23;20050;-91
2023/07/17 06:08:54;;;;;;;24.40;10.07;;;17.00;99.90;;;;;;4974473;28;20027;-93
2023/07/17 06:11:20;;;;;;;22.52;9.25;;;17.30;99.90;;;;;;4981295;23;20499;-91
2023/07/17 06:14:06;;;;;;;16.67;8.95;;;17.20;99.90;;;;;;4975194;28;20026;-92
2023/07/17 06:42:33;;;;;;;18.00;7.63;;;16.70;99.90;;;;;;5266749;23;20165;-87
2023/07/17 06:47:24;;;;;;;18.52;9.18;;;17.40;99.90;;;;;;5083454;23;20085;-90
2023/07/17 06:52:39;;;;;;;27.88;9.07;;;17.50;99.90;;;;;;4985669;23;20051;-88
2023/07/17 06:55:07;;;;;;;16.48;8.25;;;19.00;99.90;;;;;;4994547;23;20304;-87
2023/07/17 06:57:35;;;;;;;15.75;7.88;;;17.50;99.90;;;;;;4991872;28;20482;-89
2023/07/17 07:27:00;;;;;;;14.60;6.97;;;17.90;99.90;;;;;;1243410;23;20309;-88
2023/07/17 07:29:48;;;;;;;13.13;6.78;;;18.00;99.90;;;;;;4915193;29;20056;-93
2023/07/17 07:32:20;;;;;;;16.15;6.03;;;17.90;99.90;;;;;;4875506;29;20040;-89
2023/07/17 07:34:45;;;;;;;12.20;6.13;;;18.10;99.90;;;;;;4914763;29;20020;-88
2023/07/17 07:37:16;;;;;;;19.00;7.03;;;18.90;99.90;;;;;;4917301;29;20089;-90
2023/07/17 07:39:42;;;;;;;18.20;7.15;;;18.20;99.90;;;;;;4917096;29;20461;-88
2023/07/17 07:42:16;;;;;;;18.80;7.13;;;18.20;99.90;;;;;;4916047;29;20036;-87
2023/07/17 07:44:51;;;;;;;19.45;7.35;;;18.50;99.90;;;;;;4918659;29;20120;-92
2023/07/17 07:47:17;;;;;;;10.45;6.03;;;18.20;99.90;;;;;;4917709;29;20071;-92
2023/07/17 07:49:51;;;;;;;10.32;4.78;;;18.20;99.90;;;;;;4917211;29;20056;-92
2023/07/17 07:52:17;;;;;;;13.10;5.82;;;18.40;99.90;;;;;;4918257;29;20495;-92
2023/07/17 07:54:48;;;;;;;8.75;5.10;;;18.20;99.90;;;;;;4917582;29;20024;-93
2023/07/17 07:57:22;;;;;;;10.45;5.65;;;18.20;99.90;;;;;;4917362;29;20083;-91
2023/07/17 07:59:50;;;;;;;13.02;6.10;;;18.30;99.90;;;;;;4917550;29;20032;-91
2023/07/17 08:02:17;;;;;;;15.45;5.63;;;18.30;99.90;;;;;;4917790;29;20032;-92
2023/07/17 08:04:48;;;;;;;15.48;5.25;;;18.30;99.90;;;;;;4917384;29;20032;-90
2023/07/17 08:07:14;;;;;;;11.13;4.88;;;18.40;99.90;;;;;;4935056;29;20092;-89
2023/07/17 08:09:39;;;;;;;12.82;5.40;;;19.20;99.90;;;;;;4919930;29;20635;-90
2023/07/17 08:12:05;;;;;;;11.55;5.30;;;18.50;99.90;;;;;;4921627;29;20036;-91
2023/07/17 08:14:37;;;;;;;9.25;5.72;;;18.40;99.90;;;;;;4921262;29;20036;-91
2023/07/17 08:17:02;;;;;;;12.27;4.97;;;18.40;99.90;;;;;;4921697;29;20028;-89
2023/07/17 08:19:31;;;;;;;11.80;5.00;;;18.90;99.90;;;;;;4924320;29;20032;-88
2023/07/17 08:21:57;;;;;;;17.30;4.38;;;18.40;99.90;;;;;;4918319;29;20119;-87
2023/07/17 08:24:22;;;;;;;14.93;4.65;;;18.40;99.90;;;;;;4917898;29;20122;-88
2023/07/17 08:26:48;;;;;;;11.70;4.63;;;18.40;99.90;;;;;;4918524;29;20116;-88
2023/07/17 08:29:14;;;;;;;12.75;4.50;;;18.50;99.90;;;;;;4918805;29;20044;-87
2023/07/17 08:31:40;;;;;;;15.88;4.65;;;18.50;99.90;;;;;;4916875;29;20492;-89
2023/07/17 08:34:06;;;;;;;10.65;4.72;;;18.50;99.90;;;;;;4958084;23;20087;-87
2023/07/17 08:36:32;;;;;;;9.90;4.78;;;18.60;99.90;;;;;;4974288;28;20030;-87
2023/07/17 08:38:58;;;;;;;7.75;4.32;;;18.40;99.90;;;;;;4975927;23;20388;-88
2023/07/17 08:41:25;;;;;;;8.55;4.68;;;18.40;99.90;;;;;;4946414;29;20554;-86
2023/07/17 08:43:51;;;;;;;12.88;5.18;;;19.50;99.90;;;;;;4954558;29;20040;-88
2023/07/17 08:46:17;;;;;;;9.40;4.88;;;18.50;99.90;;;;;;4953909;28;20110;-87
2023/07/17 08:48:43;;;;;;;17.50;5.18;;;18.60;99.90;;;;;;4953188;28;20099;-87
2023/07/17 08:51:13;;;;;;;14.32;4.95;;;19.30;99.90;;;;;;4953666;29;20078;-87
2023/07/17 08:53:41;;;;;;;10.57;3.72;;;18.40;99.90;;;;;;4953340;29;20031;-88
2023/07/17 08:56:11;;;;;;;13.70;4.85;;;16.80;99.90;;;;;;4955237;29;20023;-87
2023/07/17 08:58:37;;;;;;;13.73;5.07;;;18.10;99.90;;;;;;4955440;28;20031;-87
2023/07/17 09:01:03;;;;;;;30.33;5.72;;;17.60;99.90;;;;;;4968417;28;20031;-90
2023/07/17 09:03:41;;;;;;;13.50;5.28;;;17.60;99.90;;;;;;4959339;28;20035;-87
2023/07/17 09:06:07;;;;;;;14.75;5.95;;;17.80;99.90;;;;;;4954945;28;20031;-87
2023/07/17 09:08:33;;;;;;;13.77;5.40;;;17.30;99.90;;;;;;4955244;28;20039;-88
2023/07/17 09:11:23;;;;;;;13.27;5.38;;;17.30;99.90;;;;;;4955563;29;20395;-87
2023/07/17 09:14:07;;;;;;;11.05;5.10;;;17.40;99.90;;;;;;4952018;29;20027;-90
2023/07/17 09:16:38;;;;;;;9.85;5.03;;;17.50;99.90;;;;;;4955647;28;20038;-88
2023/07/17 09:19:13;;;;;;;10.50;4.95;;;17.60;99.90;;;;;;4956172;29;20055;-88
2023/07/17 09:21:45;;;;;;;12.07;4.15;;;17.60;99.90;;;;;;4955160;28;20051;-90
2023/07/17 09:24:34;;;;;;;9.50;4.13;;;17.10;99.90;;;;;;4964689;23;20077;-93
2023/07/17 09:29:29;;;;;;;6.07;3.30;;;17.70;99.90;;;;;;4996538;23;20070;-89
2023/07/17 09:32:14;;;;;;;8.73;3.33;;;17.60;99.90;;;;;;4981354;28;20031;-88
2023/07/17 09:34:40;;;;;;;8.52;3.58;;;17.50;99.90;;;;;;4988024;28;20045;-88
2023/07/17 09:37:09;;;;;;;8.25;3.83;;;17.40;99.90;;;;;;4977082;28;20023;-87
2023/07/17 09:39:38;;;;;;;8.93;3.92;;;17.40;99.90;;;;;;4979161;28;20049;-86
2023/07/17 09:42:04;;;;;;;7.00;3.67;;;17.50;99.90;;;;;;4976016;28;20035;-86
2023/07/17 09:44:31;;;;;;;9.88;4.18;;;17.60;99.90;;;;;;4977353;28;20033;-86
2023/07/17 09:47:09;;;;;;;12.90;5.07;;;17.70;99.90;;;;;;4969300;28;20470;-87
2023/07/17 09:49:35;;;;;;;14.23;5.20;;;17.80;99.90;;;;;;4976760;28;20035;-87
2023/07/17 09:52:00;;;;;;;16.55;5.95;;;17.90;99.90;;;;;;4991594;28;20161;-87
2023/07/17 09:54:26;;;;;;;13.68;5.50;;;18.00;99.90;;;;;;4985427;28;20526;-86
2023/07/17 09:57:01;;;;;;;11.10;5.60;;;17.90;99.90;;;;;;4975300;28;20023;-87
2023/07/17 09:59:31;;;;;;;16.38;5.90;;;17.90;99.90;;;;;;4964945;28;20034;-86
2023/07/17 10:01:59;;;;;;;10.60;5.65;;;18.00;99.90;;;;;;4972128;28;20023;-87
2023/07/17 10:04:36;;;;;;;11.77;5.15;;;18.10;99.90;;;;;;4966304;28;20031;-86
2023/07/17 10:07:02;;;;;;;14.60;6.10;;;18.10;99.90;;;;;;4974934;28;20023;-85
2023/07/17 10:09:29;;;;;;;13.82;5.47;;;18.20;99.90;;;;;;4969153;28;20608;-86
2023/07/17 10:11:55;;;;;;;15.63;6.20;;;18.20;99.90;;;;;;4965284;28;20034;-85
2023/07/17 10:14:21;;;;;;;15.13;5.93;;;18.20;99.90;;;;;;4967018;28;20471;-85
2023/07/17 10:16:50;;;;;;;13.15;6.43;;;18.30;99.90;;;;;;4963640;28;20026;-86
2023/07/17 10:19:16;;;;;;;18.75;6.40;;;18.20;99.90;;;;;;4962833;28;20032;-86
2023/07/17 10:21:57;;;;;;;14.98;5.85;;;18.90;99.90;;;;;;4965226;28;20380;-87
2023/07/17 10:24:24;;;;;;;15.52;5.60;;;18.20;99.90;;;;;;4963025;28;20074;-87
2023/07/17 10:26:50;;;;;;;11.60;5.60;;;18.20;99.90;;;;;;4972941;28;20041;-87
2023/07/17 10:29:37;;;;;;;12.25;5.75;;;18.80;99.90;;;;;;4992642;28;20049;-89
2023/07/17 10:32:20;;;;;;;10.68;5.68;;;18.00;99.90;;;;;;4987122;23;20150;-89
2023/07/17 10:34:53;;;;;;;12.15;6.32;;;18.00;99.90;;;;;;4973366;28;20041;-90
2023/07/17 10:37:42;;;;;;;14.30;5.80;;;18.10;99.90;;;;;;4973211;28;20027;-89
2023/07/17 10:40:26;;;;;;;6.82;5.50;;;18.60;99.90;;;;;;4890963;29;20055;-89
2023/07/17 10:46:28;;;;;;;11.02;5.88;;;18.40;99.90;;;;;;4899278;23;20063;-89
2023/07/17 10:49:08;;;;;;;10.95;6.13;;;18.40;99.90;;;;;;4947544;29;20051;-91
2023/07/17 10:51:48;;;;;;;14.25;5.18;;;18.30;99.90;;;;;;4963911;29;20554;-89
2023/07/17 10:54:15;;;;;;;7.78;5.93;;;18.30;99.90;;;;;;4955187;29;20073;-88
2023/07/17 10:56:45;;;;;;;14.02;6.50;;;19.00;99.90;;;;;;4955381;29;20119;-89
2023/07/17 10:59:11;;;;;;;12.25;6.60;;;18.20;99.90;;;;;;4954427;29;20071;-89
2023/07/17 11:01:37;;;;;;;14.60;8.18;;;18.60;99.90;;;;;;4954898;29;20035;-89
2023/07/17 11:04:08;;;;;;;16.52;7.05;;;18.00;99.90;;;;;;4957907;29;20046;-88
2023/07/17 11:06:37;;;;;;;12.52;6.90;;;19.20;99.90;;;;;;4954819;29;20523;-90
2023/07/17 11:09:14;;;;;;;14.88;7.07;;;18.70;99.90;;;;;;4953907;29;20475;-89
2023/07/17 11:11:49;;;;;;;9.30;5.65;;;17.70;99.90;;;;;;4952858;29;20024;-90
2023/07/17 11:14:18;;;;;;;12.07;6.18;;;17.80;99.90;;;;;;4952531;29;20024;-89
2023/07/17 11:16:45;;;;;;;19.38;7.60;;;17.80;99.90;;;;;;4951879;29;20037;-89
2023/07/17 11:19:13;;;;;;;15.45;5.75;;;17.90;99.90;;;;;;4953471;29;20527;-90
2023/07/17 11:21:39;;;;;;;12.65;6.25;;;17.90;99.90;;;;;;4953776;29;20027;-89
2023/07/17 11:24:13;;;;;;;11.90;5.80;;;18.10;99.90;;;;;;4954912;29;20046;-89
2023/07/17 11:26:48;;;;;;;12.98;5.93;;;18.50;99.90;;;;;;4953892;29;20541;-89
2023/07/17 11:29:14;;;;;;;16.85;7.10;;;18.30;99.90;;;;;;4956508;29;20464;-89
2023/07/17 11:31:44;;;;;;;14.85;6.88;;;18.40;99.90;;;;;;4956902;29;20028;-89
2023/07/17 11:34:10;;;;;;;12.45;7.20;;;18.50;99.90;;;;;;4955868;29;20023;-89
2023/07/17 11:36:47;;;;;;;11.63;6.20;;;18.60;99.90;;;;;;4955971;29;20036;-89
2023/07/17 11:39:25;;;;;;;12.93;6.00;;;19.20;99.90;;;;;;4955440;28;20058;-88
2023/07/17 11:41:55;;;;;;;13.82;7.53;;;18.60;99.90;;;;;;4956913;29;20106;-88
2023/07/17 11:44:26;;;;;;;13.77;6.30;;;18.50;99.90;;;;;;4967890;29;20039;-90
2023/07/17 11:47:12;;;;;;;11.32;6.57;;;19.50;99.90;;;;;;4962723;28;20059;-87
2023/07/17 11:49:42;;;;;;;12.85;5.68;;;18.60;99.90;;;;;;4957059;29;20035;-86
2023/07/17 11:52:18;;;;;;;13.85;6.22;;;19.00;99.90;;;;;;4957620;29;20031;-87
2023/07/17 11:54:56;;;;;;;11.30;5.75;;;18.70;99.90;;;;;;4955581;29;20027;-89
2023/07/17 11:57:28;;;;;;;14.40;6.63;;;18.70;99.90;;;;;;4958849;29;20027;-89
2023/07/17 12:00:11;;;;;;;9.63;6.28;;;18.70;99.90;;;;;;4952661;29;20438;-88
2023/07/17 12:02:46;;;;;;;12.88;6.13;;;18.80;99.90;;;;;;4957296;29;20043;-88
2023/07/17 12:05:14;;;;;;;22.55;6.60;;;19.60;99.90;;;;;;4958018;29;20028;-88
2023/07/17 12:07:40;;;;;;;13.02;5.82;;;18.90;99.90;;;;;;4958292;29;20027;-88
2023/07/17 12:10:09;;;;;;;12.43;6.30;;;18.90;99.90;;;;;;4958426;29;20032;-88
2023/07/17 12:12:49;;;;;;;17.42;6.68;;;19.00;99.90;;;;;;4960303;29;20459;-91
2023/07/17 12:15:15;;;;;;;;;;;19.00;99.90;;;;;;4958871;29;20035;-90
2023/07/17 12:17:45;;;;;;;15.77;7.03;;;19.00;99.90;;;;;;4958229;29;19961;-92
2023/07/17 12:20:15;;;;;;;11.82;6.75;;;19.70;99.90;;;;;;4957651;29;20023;-89
2023/07/17 12:22:45;;;;;;;14.10;7.03;;;18.70;99.90;;;;;;4948582;29;20098;-88
2023/07/17 12:25:11;;;;;;;13.20;6.60;;;18.70;99.90;;;;;;4957618;29;20263;-88
2023/07/17 12:27:36;;;;;;;10.15;6.30;;;18.60;99.90;;;;;;4957646;29;20038;-89
2023/07/17 12:30:02;;;;;;;9.93;6.07;;;18.70;99.90;;;;;;4957365;29;20039;-90
2023/07/17 12:32:28;;;;;;;14.00;5.85;;;18.70;99.90;;;;;;4959950;28;20023;-88
2023/07/17 12:34:54;;;;;;;8.40;5.70;;;19.10;99.90;;;;;;4956411;28;20382;-88
2023/07/17 12:37:19;;;;;;;12.90;5.97;;;19.00;99.90;;;;;;4956514;29;20423;-88
2023/07/17 12:39:45;;;;;;;9.95;5.07;;;18.80;99.90;;;;;;4952833;29;20115;-87
2023/07/17 12:42:11;;;;;;;6.45;4.68;;;18.90;99.90;;;;;;4949023;29;20042;-89
2023/07/17 12:44:46;;;;;;;5.70;4.22;;;18.80;99.90;;;;;;4941172;29;20098;-89
2023/07/17 12:47:13;;;;;;;4.47;4.03;;;18.80;99.90;;;;;;4948984;29;20511;-89
2023/07/17 12:49:39;;;;;;;7.90;4.45;;;18.70;99.90;;;;;;4955725;29;20386;-88
2023/07/17 12:52:05;;;;;;;15.20;6.32;;;18.70;99.90;;;;;;4955051;28;20043;-88
2023/07/17 12:54:31;;;;;;;12.20;4.72;;;18.50;99.90;;;;;;4957614;29;20058;-89
2023/07/17 12:56:56;;;;;;;7.53;5.72;;;18.40;99.90;;;;;;4966429;29;20023;-89
2023/07/17 12:59:23;;;;;;;14.57;6.75;;;18.40;99.90;;;;;;4963862;29;20406;-89
2023/07/17 13:01:49;;;;;;;13.63;6.57;;;18.40;99.90;;;;;;4962053;29;20031;-88
2023/07/17 13:04:15;;;;;;;11.23;6.25;;;18.40;99.90;;;;;;4968693;29;20399;-88
2023/07/17 13:06:41;;;;;;;9.50;6.13;;;18.70;99.90;;;;;;4957975;29;20031;-89
2023/07/17 13:09:08;;;;;;;10.55;6.72;;;18.70;99.90;;;;;;4957750;29;20047;-89
2023/07/17 13:11:34;;;;;;;9.02;5.38;;;18.70;99.90;;;;;;4957446;29;20020;-89
2023/07/17 13:14:00;;;;;;;14.30;5.47;;;18.70;99.90;;;;;;4956915;29;20066;-90
2023/07/17 13:16:26;;;;;;;14.13;6.20;;;18.70;99.90;;;;;;4957039;29;20054;-89
2023/07/17 13:19:24;;;;;;;9.77;5.07;;;18.80;99.90;;;;;;4956598;29;20060;-89
2023/07/17 13:21:49;;;;;;;8.90;5.03;;;18.90;99.90;;;;;;4904797;29;20043;-90
2023/07/17 13:24:18;;;;;;;13.95;5.70;;;19.50;99.90;;;;;;4957382;29;20046;-89
2023/07/17 13:26:44;;;;;;;13.52;5.55;;;19.70;99.90;;;;;;4956269;29;20209;-90
2023/07/17 13:29:10;;;;;;;9.95;5.55;;;19.00;99.90;;;;;;4958114;29;20031;-89
2023/07/17 13:31:45;;;;;;;9.82;6.00;;;19.10;99.90;;;;;;4953039;29;20027;-91
2023/07/17 13:34:10;;;;;;;9.65;6.47;;;19.20;99.90;;;;;;4963224;29;20111;-91
2023/07/17 13:36:36;;;;;;;9.20;5.82;;;19.30;99.90;;;;;;4958150;29;20055;-90
2023/07/17 13:39:03;;;;;;;9.20;4.63;;;19.40;99.90;;;;;;4950399;29;20024;-91
2023/07/17 13:42:01;;;;;;;7.53;4.90;;;19.40;99.90;;;;;;4949384;29;20055;-90
2023/07/17 13:47:20;;;;;;;6.80;5.18;;;19.50;99.90;;;;;;4944473;28;20143;-89
2023/07/17 13:49:48;;;;;;;8.95;4.90;;;19.50;99.90;;;;;;4952963;29;20039;-89
2023/07/17 13:52:32;;;;;;;10.18;5.80;;;19.90;99.90;;;;;;4943838;29;20023;-88
2023/07/17 13:54:58;;;;;;;8.98;4.75;;;19.70;99.90;;;;;;4955983;29;20015;-89
2023/07/17 13:57:24;;;;;;;8.68;4.78;;;19.70;99.90;;;;;;4961635;23;20106;-88
2023/07/17 13:59:59;;;;;;;7.68;4.55;;;20.20;99.90;;;;;;4955566;28;20034;-87
2023/07/17 14:02:39;;;;;;;9.00;4.78;;;19.80;99.90;;;;;;4943844;29;20491;-88
2023/07/17 14:05:16;;;;;;;10.35;5.47;;;20.00;99.90;;;;;;4952918;28;20031;-89
2023/07/17 14:07:42;;;;;;;12.02;4.88;;;19.50;99.90;;;;;;4974389;28;20054;-89
2023/07/17 14:10:28;;;;;;;10.27;5.35;;;19.40;99.90;;;;;;4980162;28;20474;-89
2023/07/17 14:12:54;;;;;;;12.05;5.53;;;20.00;99.90;;;;;;4955922;28;20031;-89
2023/07/17 14:15:19;;;;;;;13.30;5.95;;;19.80;99.90;;;;;;4954538;28;20120;-89
2023/07/17 14:17:54;;;;;;;13.30;5.40;;;19.80;99.90;;;;;;4955465;28;20033;-89
2023/07/17 14:20:20;;;;;;;14.00;6.30;;;19.70;99.90;;;;;;4955283;29;20023;-89
2023/07/17 14:22:45;;;;;;;8.45;5.05;;;20.60;99.90;;;;;;4958124;28;20038;-88
2023/07/17 14:25:11;;;;;;;7.03;4.78;;;20.00;99.90;;;;;;4957572;28;20023;-89
2023/07/17 14:27:45;;;;;;;8.30;4.47;;;19.80;99.90;;;;;;4978587;28;20501;-89
2023/07/17 14:30:46;;;;;;;8.27;4.60;;;20.40;99.90;;;;;;4970397;23;20055;-88
2023/07/17 14:33:14;;;;;;;5.32;3.70;;;19.60;99.90;;;;;;4940025;28;20032;-88
2023/07/17 14:35:40;;;;;;;5.90;3.08;;;19.60;99.90;;;;;;4936089;29;20476;-90
2023/07/17 14:38:07;;;;;;;4.05;3.05;;;19.60;99.90;;;;;;4929471;29;20051;-88
2023/07/17 14:40:42;;;;;;;4.53;2.70;;;19.40;99.90;;;;;;4935980;29;20372;-88
2023/07/17 14:43:08;;;;;;;6.50;3.03;;;19.70;99.90;;;;;;4936518;29;20024;-89
2023/07/17 14:45:33;;;;;;;5.55;3.10;;;20.20;99.90;;;;;;4935738;29;20452;-88
2023/07/17 14:48:04;;;;;;;6.68;4.00;;;20.20;99.90;;;;;;4935708;29;20042;-88
2023/07/17 14:50:30;;;;;;;7.88;3.90;;;19.50;99.90;;;;;;4935047;29;20030;-89
2023/07/17 14:52:57;;;;;;;8.18;3.72;;;19.50;99.90;;;;;;4936040;29;20027;-89
2023/07/17 14:55:25;;;;;;;10.20;4.38;;;19.60;99.90;;;;;;4935248;29;20038;-88
2023/07/17 14:57:52;;;;;;;8.80;3.90;;;19.70;99.90;;;;;;4935522;29;20028;-86
2023/07/17 15:00:19;;;;;;;8.13;3.55;;;19.80;99.90;;;;;;4935905;29;20041;-91
2023/07/17 15:08:41;;;;;;;;;;;;;;;;;;;;;
2023/07/17 15:24:43;;;;;;;7.13;3.63;;;20.50;99.90;;;;;;5240338;23;20055;-92
2023/07/17 15:27:26;;;;;;;6.43;3.40;;;20.60;99.90;;;;;;4970846;28;20027;-91
2023/07/17 15:30:04;;;;;;;6.07;3.53;;;20.90;99.90;;;;;;4971636;23;20073;-89
2023/07/17 15:32:51;;;;;;;6.68;3.35;;;21.00;99.90;;;;;;4955503;28;20031;-92
2023/07/17 15:35:16;;;;;;;4.13;2.30;;;21.50;99.90;;;;;;4944338;29;20518;-89
2023/07/17 15:38:23;;;;;;;4.65;1.55;;;21.60;99.90;;;;;;4949721;29;20020;-93
2023/07/17 15:41:34;;;;;;;;;;;;;;;;;;;;;
2023/07/17 15:44:28;;;;;;;2.60;1.20;;;21.70;99.60;;;;;;4808532;29;20056;-94